Terminal Aerodrome Forecast
Issued by NWS Detroit/Pontiac, MI

Home | Current Version | Previous Version | Text Only | Print | Product List | Glossary On
Versions: 1 2 3 4 5 6 7 8 9 10 11 12 13 14 15 16 17 18 19 20 21 22 23 24
000
FTUS43 KDTX 252320
TAFDTW
TAF
KDTW 252320Z 2600/2706 06012KT P6SM SCT008 OVC015
     FM260300 08007KT 4SM BR OVC008
     FM260800 09007KT 2SM BR OVC006
     FM261500 11008KT 5SM BR BKN010
     FM261700 13010KT 5SM -SHRA SCT012 OVC022
     FM270100 16008KT 3SM -SHRA BR OVC012=

USA.gov is the U.S. government's official web portal to all federal, state and local government web resources and services.